Time;durP1;ratioP1;P1;durP2;ratioP2;P2;SDS_P1;SDS_P2;PMS_P1;PMS_P2;Temp;Humidity;BMP_temperature;BMP_pressure;BME280_temperature;BME280_humidity;BME280_pressure;Samples;Min_cycle;Max_cycle;Signal;HPM_P1;HPM_P2
2023/03/31 00:00:10;;;;;;;25.85;4.28;;;10.40;99.90;;;;;;5132085;27;20356;-76
2023/03/31 00:02:40;;;;;;;30.90;4.18;;;10.30;99.90;;;;;;5131782;27;20520;-76
2023/03/31 00:05:07;;;;;;;23.73;4.60;;;10.20;99.90;;;;;;5131951;27;20029;-76
2023/03/31 00:07:36;;;;;;;32.50;4.70;;;10.30;99.90;;;;;;5131583;27;20042;-77
2023/03/31 00:10:04;;;;;;;23.27;5.60;;;10.20;99.90;;;;;;5132268;27;20047;-77
2023/03/31 00:12:29;;;;;;;26.73;4.82;;;10.10;99.90;;;;;;5131711;27;20031;-77
2023/03/31 00:14:55;;;;;;;30.98;5.15;;;10.10;99.90;;;;;;5132459;27;20110;-76
2023/03/31 00:17:21;;;;;;;26.42;5.05;;;10.20;99.90;;;;;;5132052;27;20478;-75
2023/03/31 00:19:49;;;;;;;24.92;4.25;;;10.20;99.90;;;;;;5131731;27;20027;-77
2023/03/31 00:22:21;;;;;;;25.30;4.10;;;10.20;99.90;;;;;;5131878;27;20138;-76
2023/03/31 00:24:47;;;;;;;29.15;5.03;;;10.10;99.90;;;;;;5131149;27;20063;-76
2023/03/31 00:27:13;;;;;;;22.58;4.30;;;10.10;99.90;;;;;;5131595;27;20027;-76
2023/03/31 00:29:42;;;;;;;21.73;4.35;;;10.10;99.90;;;;;;5131082;27;20088;-76
2023/03/31 00:32:08;;;;;;;27.15;5.65;;;10.10;99.90;;;;;;5131619;27;20035;-76
2023/03/31 00:34:34;;;;;;;25.60;5.43;;;10.10;99.90;;;;;;5130922;27;20023;-76
2023/03/31 00:37:01;;;;;;;16.13;3.85;;;10.10;99.90;;;;;;5131609;27;20024;-76
2023/03/31 00:39:30;;;;;;;21.13;4.35;;;10.10;99.90;;;;;;5112437;28;20027;-77
2023/03/31 00:41:57;;;;;;;17.65;4.78;;;10.10;99.90;;;;;;5131243;27;20534;-76
2023/03/31 00:44:24;;;;;;;27.40;5.53;;;10.10;99.90;;;;;;5131609;28;20046;-75
2023/03/31 00:47:21;;;;;;;23.90;4.47;;;10.10;99.90;;;;;;5131157;28;20023;-75
2023/03/31 00:49:53;;;;;;;20.85;4.72;;;10.10;99.90;;;;;;5130895;28;20043;-75
2023/03/31 00:52:23;;;;;;;26.38;5.28;;;10.10;99.90;;;;;;5131210;28;20027;-75
2023/03/31 00:55:02;;;;;;;20.75;4.78;;;10.10;99.90;;;;;;5130932;28;20121;-76
2023/03/31 00:57:31;;;;;;;21.45;4.30;;;10.10;99.90;;;;;;5130965;28;20059;-77
2023/03/31 01:00:00;;;;;;;26.65;5.60;;;10.10;99.90;;;;;;5131385;28;20126;-76
2023/03/31 01:02:27;;;;;;;23.45;5.03;;;10.10;99.90;;;;;;5131360;28;20171;-81
2023/03/31 01:05:00;;;;;;;29.05;6.35;;;10.10;99.90;;;;;;5130883;28;20141;-76
2023/03/31 01:07:43;;;;;;;24.10;6.80;;;10.10;99.90;;;;;;5131356;28;20416;-80
2023/03/31 01:10:09;;;;;;;24.98;6.95;;;10.10;99.90;;;;;;5131228;28;20035;-76
2023/03/31 01:12:41;;;;;;;26.52;6.28;;;10.10;99.90;;;;;;5130885;28;20027;-76
2023/03/31 01:15:08;;;;;;;20.92;5.28;;;10.10;99.90;;;;;;5112621;28;20023;-76
2023/03/31 01:17:35;;;;;;;26.50;5.30;;;10.10;99.90;;;;;;5112348;28;20035;-76
2023/03/31 01:20:25;;;;;;;23.65;4.45;;;10.10;99.90;;;;;;5131292;28;20034;-75
2023/03/31 01:23:15;;;;;;;28.50;5.47;;;10.10;99.90;;;;;;5130553;28;20039;-76
2023/03/31 01:26:01;;;;;;;22.23;4.22;;;10.10;99.90;;;;;;5130717;28;20084;-76
2023/03/31 01:29:16;;;;;;;30.45;5.28;;;10.10;99.90;;;;;;5130610;28;20363;-81
2023/03/31 01:32:01;;;;;;;24.52;4.68;;;10.10;99.90;;;;;;5103291;28;20035;-77
2023/03/31 01:34:45;;;;;;;18.95;3.80;;;10.10;99.90;;;;;;5130722;28;20030;-77
2023/03/31 01:37:37;;;;;;;24.98;4.93;;;10.10;99.90;;;;;;5131190;28;20174;-77
2023/03/31 01:40:21;;;;;;;26.38;4.03;;;10.00;99.90;;;;;;5129910;28;20078;-77
2023/03/31 01:43:05;;;;;;;24.48;3.92;;;9.90;99.90;;;;;;5130633;28;20510;-77
2023/03/31 01:45:52;;;;;;;26.55;4.15;;;9.90;99.90;;;;;;5130615;28;20452;-79
2023/03/31 01:48:22;;;;;;;16.80;3.15;;;9.90;99.90;;;;;;5130891;28;20038;-77
2023/03/31 01:50:56;;;;;;;20.95;3.83;;;10.00;99.90;;;;;;5130289;28;20031;-77
2023/03/31 01:54:10;;;;;;;25.08;3.78;;;10.00;99.90;;;;;;5130852;27;20065;-78
2023/03/31 01:56:45;;;;;;;19.35;4.10;;;9.90;99.90;;;;;;5030160;28;20038;-78
2023/03/31 01:59:15;;;;;;;21.08;4.05;;;9.90;99.90;;;;;;5030702;28;20129;-77
2023/03/31 02:02:05;;;;;;;18.42;3.63;;;9.90;99.90;;;;;;5030230;28;20480;-76
2023/03/31 02:04:43;;;;;;;19.98;3.33;;;9.90;99.90;;;;;;5030097;28;20036;-80
2023/03/31 02:07:21;;;;;;;30.35;4.32;;;10.00;99.90;;;;;;5030810;28;20333;-76
2023/03/31 02:09:58;;;;;;;22.45;4.22;;;10.00;99.90;;;;;;5029736;28;20471;-76
2023/03/31 02:12:29;;;;;;;23.70;4.55;;;9.90;99.90;;;;;;5013854;28;20061;-77
2023/03/31 02:14:56;;;;;;;27.75;5.78;;;10.00;99.90;;;;;;5029951;28;20507;-77
2023/03/31 02:17:29;;;;;;;31.15;4.05;;;10.00;99.90;;;;;;5030199;28;20132;-77
2023/03/31 02:19:58;;;;;;;29.33;4.65;;;10.00;99.90;;;;;;5012986;28;20030;-76
2023/03/31 02:22:26;;;;;;;21.98;4.22;;;9.90;99.90;;;;;;5029722;28;20085;-77
2023/03/31 02:24:53;;;;;;;22.52;3.55;;;9.90;99.90;;;;;;5012905;28;20033;-76
2023/03/31 02:27:27;;;;;;;23.60;3.92;;;10.00;99.90;;;;;;5071126;28;20393;-75
2023/03/31 02:29:54;;;;;;;26.73;3.45;;;9.90;99.90;;;;;;5112067;28;20150;-76
2023/03/31 02:32:31;;;;;;;27.88;4.97;;;10.00;99.90;;;;;;5112580;28;20428;-75
2023/03/31 02:34:57;;;;;;;23.13;4.05;;;10.00;99.90;;;;;;5112850;28;20024;-75
2023/03/31 02:37:24;;;;;;;29.95;4.10;;;9.90;99.90;;;;;;5112750;28;20031;-75
2023/03/31 02:39:53;;;;;;;22.77;3.63;;;9.90;99.90;;;;;;5112157;28;20031;-75
2023/03/31 02:42:19;;;;;;;22.13;3.45;;;9.90;99.90;;;;;;5112942;28;20019;-76
2023/03/31 02:44:45;;;;;;;23.27;3.90;;;9.90;99.90;;;;;;5112170;28;20023;-77
2023/03/31 02:47:13;;;;;;;18.85;3.08;;;9.90;99.90;;;;;;5112661;28;20069;-75
2023/03/31 02:49:42;;;;;;;14.20;2.90;;;9.90;99.90;;;;;;5111841;28;20540;-75
2023/03/31 02:52:33;;;;;;;26.10;3.53;;;9.90;99.90;;;;;;5112425;28;20028;-75
2023/03/31 02:55:26;;;;;;;19.20;3.70;;;9.90;99.90;;;;;;5080818;28;20039;-75
2023/03/31 02:58:11;;;;;;;;;;;10.00;99.90;;;;;;5112438;28;20459;-75
2023/03/31 03:01:20;;;;;;;19.35;2.75;;;10.00;99.90;;;;;;5111702;28;20366;-76
2023/03/31 03:04:02;;;;;;;20.83;3.17;;;9.90;99.90;;;;;;5112453;28;20019;-75
2023/03/31 03:06:52;;;;;;;18.63;3.22;;;9.90;99.90;;;;;;5112308;28;20027;-75
2023/03/31 03:09:21;;;;;;;19.30;3.42;;;9.90;99.90;;;;;;5112205;28;20104;-76
2023/03/31 03:12:01;;;;;;;23.40;3.55;;;9.90;99.90;;;;;;5111355;28;20032;-76
2023/03/31 03:15:01;;;;;;;19.83;3.80;;;10.00;99.90;;;;;;5112402;28;20114;-76
2023/03/31 03:17:40;;;;;;;21.63;3.05;;;9.90;99.90;;;;;;5112086;28;20024;-76
2023/03/31 03:20:10;;;;;;;22.42;3.20;;;9.90;99.90;;;;;;5112218;28;20089;-75
2023/03/31 03:22:37;;;;;;;22.55;3.03;;;9.90;99.90;;;;;;5111601;28;20130;-80
2023/03/31 03:25:09;;;;;;;18.95;3.38;;;9.90;99.90;;;;;;5112124;28;20038;-76
2023/03/31 03:27:35;;;;;;;17.70;3.00;;;9.90;99.90;;;;;;5112018;28;20134;-76
2023/03/31 03:30:05;;;;;;;23.90;3.08;;;10.00;99.90;;;;;;5112030;28;20028;-76
2023/03/31 03:32:32;;;;;;;20.65;3.15;;;10.00;99.90;;;;;;5112112;28;20080;-75
2023/03/31 03:34:59;;;;;;;18.20;3.45;;;10.00;99.90;;;;;;5111714;28;20499;-75
2023/03/31 03:37:25;;;;;;;21.55;3.67;;;10.00;99.90;;;;;;5112181;28;20432;-75
2023/03/31 03:39:51;;;;;;;26.92;3.95;;;9.90;99.90;;;;;;5093655;28;20047;-75
2023/03/31 03:42:16;;;;;;;21.08;3.97;;;9.90;99.90;;;;;;5112475;28;20035;-75
2023/03/31 03:44:42;;;;;;;19.58;3.78;;;9.90;99.90;;;;;;5111445;28;20073;-76
2023/03/31 03:47:08;;;;;;;21.98;3.72;;;9.90;99.90;;;;;;5111385;28;20449;-76
2023/03/31 03:49:34;;;;;;;23.33;3.72;;;9.90;99.90;;;;;;5111236;28;20027;-75
2023/03/31 03:51:59;;;;;;;20.75;3.33;;;9.90;99.90;;;;;;5111306;28;20307;-75
2023/03/31 03:54:25;;;;;;;25.55;4.53;;;9.90;99.90;;;;;;5111230;28;20036;-76
2023/03/31 03:56:51;;;;;;;24.58;4.75;;;9.90;99.90;;;;;;5111176;28;20028;-76
2023/03/31 03:59:16;;;;;;;29.48;6.30;;;9.80;99.90;;;;;;5111668;28;20129;-76
2023/03/31 04:01:42;;;;;;;33.65;5.35;;;9.80;99.90;;;;;;5110937;28;20028;-77
2023/03/31 04:04:08;;;;;;;24.42;4.63;;;9.80;99.90;;;;;;5111309;28;20027;-77
2023/03/31 04:06:34;;;;;;;24.23;4.45;;;9.80;99.90;;;;;;5092942;28;20037;-76
2023/03/31 04:09:00;;;;;;;24.25;4.60;;;9.90;99.90;;;;;;5110440;28;20035;-76
2023/03/31 04:11:27;;;;;;;27.33;4.10;;;9.90;99.90;;;;;;5111265;28;20031;-77
2023/03/31 04:13:53;;;;;;;23.38;4.28;;;9.90;99.90;;;;;;5110514;28;20050;-77
2023/03/31 04:16:18;;;;;;;28.75;4.30;;;9.90;99.90;;;;;;5111006;28;20465;-76
2023/03/31 04:18:44;;;;;;;24.23;4.00;;;9.90;99.90;;;;;;5109880;28;20027;-76
2023/03/31 04:21:14;;;;;;;25.60;5.47;;;9.90;99.90;;;;;;5110727;28;20023;-75
2023/03/31 04:23:45;;;;;;;22.10;4.63;;;9.90;99.90;;;;;;5110100;28;20055;-81
2023/03/31 04:26:16;;;;;;;18.58;3.95;;;9.90;99.90;;;;;;5111005;28;20130;-77
2023/03/31 04:28:45;;;;;;;23.95;4.55;;;9.90;99.90;;;;;;5110613;28;20125;-82
2023/03/31 04:31:15;;;;;;;27.17;4.70;;;9.90;99.90;;;;;;5110606;28;20315;-77
2023/03/31 04:33:44;;;;;;;26.17;5.65;;;9.90;99.90;;;;;;5110434;28;20034;-81
2023/03/31 04:36:16;;;;;;;19.98;4.32;;;9.90;99.90;;;;;;5110561;28;20050;-76
2023/03/31 04:38:45;;;;;;;22.90;4.75;;;9.90;99.90;;;;;;5110097;28;20329;-81
2023/03/31 04:41:14;;;;;;;16.27;4.35;;;9.90;99.90;;;;;;5110457;28;20063;-75
2023/03/31 04:43:40;;;;;;;26.23;4.40;;;9.90;99.90;;;;;;5110444;28;20026;-76
2023/03/31 04:46:06;;;;;;;26.77;4.72;;;10.00;99.90;;;;;;5110020;28;20024;-76
2023/03/31 04:48:32;;;;;;;22.35;4.03;;;10.00;99.90;;;;;;5110603;28;20024;-75
2023/03/31 04:50:58;;;;;;;18.05;3.90;;;10.00;99.90;;;;;;5110181;28;20487;-76
2023/03/31 04:53:24;;;;;;;21.70;4.20;;;10.00;99.90;;;;;;5110982;28;20027;-76
2023/03/31 04:55:50;;;;;;;22.42;4.63;;;10.00;99.90;;;;;;5110099;28;20028;-76
2023/03/31 04:58:16;;;;;;;41.10;4.97;;;10.00;99.90;;;;;;5110657;28;20035;-76
2023/03/31 05:00:42;;;;;;;27.80;4.97;;;10.00;99.90;;;;;;5110323;28;20019;-80
2023/03/31 05:03:08;;;;;;;20.13;4.15;;;10.00;99.90;;;;;;5092264;28;20063;-75
2023/03/31 05:05:35;;;;;;;29.60;4.85;;;10.10;99.90;;;;;;5110135;28;20464;-76
2023/03/31 05:08:01;;;;;;;22.65;4.65;;;10.00;99.90;;;;;;5111937;28;20110;-77
2023/03/31 05:10:27;;;;;;;24.25;3.85;;;10.00;99.90;;;;;;5130904;28;20042;-77
2023/03/31 05:12:52;;;;;;;23.40;3.80;;;10.00;99.90;;;;;;5130503;28;20369;-77
2023/03/31 05:15:18;;;;;;;21.02;3.42;;;10.10;99.90;;;;;;5130851;28;20106;-76
2023/03/31 05:17:44;;;;;;;17.33;3.70;;;10.10;99.90;;;;;;5112448;28;20027;-81
2023/03/31 05:20:12;;;;;;;18.15;3.78;;;10.10;99.90;;;;;;5130724;28;20039;-77
2023/03/31 05:22:38;;;;;;;22.73;4.88;;;10.10;99.90;;;;;;5130796;28;20416;-76
2023/03/31 05:25:06;;;;;;;20.88;4.20;;;10.10;99.90;;;;;;5130323;28;20098;-77
2023/03/31 05:27:32;;;;;;;18.13;4.43;;;10.10;99.90;;;;;;5130979;28;20068;-76
2023/03/31 05:29:58;;;;;;;21.75;4.07;;;10.10;99.90;;;;;;5133820;27;20553;-77
2023/03/31 05:32:26;;;;;;;22.95;4.38;;;10.10;99.90;;;;;;5134851;27;20035;-75
2023/03/31 05:34:55;;;;;;;23.90;4.40;;;10.10;99.90;;;;;;5134278;27;20034;-76
2023/03/31 05:37:23;;;;;;;19.65;3.42;;;10.10;99.90;;;;;;5135006;27;20031;-75
2023/03/31 05:39:49;;;;;;;18.35;3.67;;;10.10;99.90;;;;;;5133700;27;20126;-77
2023/03/31 05:42:15;;;;;;;21.38;4.32;;;10.10;99.90;;;;;;5135396;27;20126;-75
2023/03/31 05:44:40;;;;;;;24.52;4.70;;;10.10;99.90;;;;;;5134886;27;20033;-75
2023/03/31 05:47:06;;;;;;;26.50;5.03;;;10.10;99.90;;;;;;5133878;27;20098;-75
2023/03/31 05:49:32;;;;;;;21.65;6.28;;;10.10;99.90;;;;;;5134374;27;20023;-75
2023/03/31 05:51:58;;;;;;;25.10;5.38;;;10.10;99.90;;;;;;5133594;27;20436;-75
2023/03/31 05:54:23;;;;;;;36.40;7.28;;;10.10;99.90;;;;;;5134245;27;20019;-75
2023/03/31 05:56:49;;;;;;;26.88;6.55;;;10.10;99.90;;;;;;5133991;27;20031;-76
2023/03/31 05:59:15;;;;;;;25.75;6.30;;;10.10;99.90;;;;;;5134445;27;20125;-75
2023/03/31 06:01:41;;;;;;;20.95;5.70;;;10.10;99.90;;;;;;5134643;27;20065;-75
2023/03/31 06:04:06;;;;;;;27.88;5.80;;;10.10;99.90;;;;;;5133654;27;20027;-75
2023/03/31 06:06:33;;;;;;;24.42;6.78;;;10.10;99.90;;;;;;5134256;27;20415;-74
2023/03/31 06:08:59;;;;;;;29.20;6.65;;;10.10;99.90;;;;;;5114924;27;20034;-74
2023/03/31 06:11:25;;;;;;;32.03;7.03;;;10.10;99.90;;;;;;5133776;27;20484;-74
2023/03/31 06:13:51;;;;;;;23.13;7.05;;;10.10;99.90;;;;;;5133416;27;20031;-75
2023/03/31 06:16:17;;;;;;;23.30;6.88;;;10.10;99.90;;;;;;5134117;27;20027;-74
2023/03/31 06:18:44;;;;;;;26.00;7.30;;;10.10;99.90;;;;;;5134133;27;20027;-74
2023/03/31 06:21:15;;;;;;;23.27;6.05;;;10.10;99.90;;;;;;5133802;27;20645;-74
2023/03/31 06:23:43;;;;;;;35.00;7.63;;;10.10;99.90;;;;;;5133682;27;20069;-75
2023/03/31 06:26:18;;;;;;;29.75;6.90;;;10.10;99.90;;;;;;5133079;27;20033;-75
2023/03/31 06:28:45;;;;;;;30.95;7.78;;;10.10;99.90;;;;;;5133760;27;20468;-75
2023/03/31 06:31:16;;;;;;;34.45;7.22;;;10.10;99.90;;;;;;5133221;27;20816;-75
2023/03/31 06:33:43;;;;;;;26.30;7.43;;;10.20;99.90;;;;;;5134069;27;20019;-75
2023/03/31 06:36:14;;;;;;;24.40;6.57;;;10.20;99.90;;;;;;5114732;27;20045;-75
2023/03/31 06:38:40;;;;;;;30.83;8.50;;;10.20;99.90;;;;;;5133681;27;20035;-75
2023/03/31 06:41:08;;;;;;;33.95;9.20;;;10.30;99.90;;;;;;5132034;27;20071;-76
2023/03/31 06:43:34;;;;;;;38.25;8.05;;;10.30;99.90;;;;;;5133578;27;20076;-75
2023/03/31 06:46:00;;;;;;;42.78;9.40;;;10.20;99.90;;;;;;5132889;27;20034;-75
2023/03/31 06:48:26;;;;;;;33.92;10.35;;;10.20;99.90;;;;;;5133450;27;20030;-76
2023/03/31 06:50:53;;;;;;;44.80;9.30;;;10.30;99.90;;;;;;5132821;27;20031;-81
2023/03/31 06:53:20;;;;;;;34.03;8.75;;;10.30;99.90;;;;;;5115080;27;20027;-75
2023/03/31 06:55:46;;;;;;;29.00;9.95;;;10.30;99.90;;;;;;5133508;27;20105;-75
2023/03/31 06:58:12;;;;;;;27.00;8.60;;;10.30;99.90;;;;;;5132543;27;20638;-75
2023/03/31 07:00:38;;;;;;;33.75;9.48;;;10.30;99.90;;;;;;5133158;27;20031;-75
2023/03/31 07:03:05;;;;;;;28.65;8.65;;;10.30;99.90;;;;;;5132508;27;20068;-75
2023/03/31 07:05:31;;;;;;;33.47;8.38;;;10.30;99.90;;;;;;5133079;27;20146;-75
2023/03/31 07:07:58;;;;;;;29.13;8.38;;;10.30;99.90;;;;;;5132292;27;20045;-75
2023/03/31 07:10:26;;;;;;;35.67;9.25;;;10.40;99.90;;;;;;5132869;27;20038;-75
2023/03/31 07:12:52;;;;;;;33.50;8.13;;;10.30;99.90;;;;;;5132250;27;20065;-79
2023/03/31 07:15:21;;;;;;;34.50;8.48;;;10.40;99.90;;;;;;5132435;27;20043;-74
2023/03/31 07:17:49;;;;;;;34.05;7.05;;;10.40;99.90;;;;;;5132773;27;20344;-74
2023/03/31 07:20:17;;;;;;;33.05;7.07;;;10.40;99.90;;;;;;5131890;27;20119;-74
2023/03/31 07:22:45;;;;;;;25.05;7.90;;;10.40;99.90;;;;;;5132538;27;20043;-74
2023/03/31 07:25:12;;;;;;;26.60;6.43;;;10.50;99.90;;;;;;5131981;27;20023;-74
2023/03/31 07:27:38;;;;;;;20.63;6.18;;;10.40;99.90;;;;;;5132313;27;20374;-75
2023/03/31 07:30:05;;;;;;;21.88;6.65;;;10.50;99.90;;;;;;5113308;27;20030;-75
2023/03/31 07:32:32;;;;;;;24.30;7.18;;;10.50;99.90;;;;;;5132408;27;20065;-75
2023/03/31 07:34:58;;;;;;;34.15;7.25;;;10.60;99.90;;;;;;5131889;27;20125;-76
2023/03/31 07:37:24;;;;;;;24.58;7.30;;;10.60;99.90;;;;;;5132074;27;20027;-74
2023/03/31 07:39:50;;;;;;;25.58;7.47;;;10.60;99.90;;;;;;5132198;27;20111;-74
2023/03/31 07:42:16;;;;;;;31.38;7.95;;;10.60;99.90;;;;;;5131805;27;20019;-75
2023/03/31 07:44:42;;;;;;;25.42;8.30;;;10.60;99.90;;;;;;5132228;27;20512;-75
2023/03/31 07:47:08;;;;;;;32.97;8.77;;;10.60;99.90;;;;;;5131625;27;20098;-75
2023/03/31 07:49:34;;;;;;;31.42;8.88;;;10.50;99.90;;;;;;5132343;27;20031;-75
2023/03/31 07:52:00;;;;;;;27.00;9.05;;;10.60;99.90;;;;;;5130940;27;20100;-76
2023/03/31 07:54:27;;;;;;;26.98;9.70;;;10.60;99.90;;;;;;5132310;27;20019;-76
2023/03/31 07:56:53;;;;;;;28.98;8.98;;;10.60;99.90;;;;;;5131826;27;20035;-76
2023/03/31 07:59:19;;;;;;;24.85;8.50;;;10.70;99.90;;;;;;5131522;27;20383;-75
2023/03/31 08:01:45;;;;;;;31.00;9.95;;;10.70;99.90;;;;;;5132116;27;20025;-76
2023/03/31 08:04:11;;;;;;;22.52;8.45;;;10.60;99.90;;;;;;5131357;27;20106;-75
2023/03/31 08:06:37;;;;;;;29.67;8.80;;;10.70;99.90;;;;;;5113399;27;20023;-76
2023/03/31 08:09:06;;;;;;;32.28;9.13;;;10.70;99.90;;;;;;5131180;27;20116;-76
2023/03/31 08:11:32;;;;;;;26.35;10.10;;;10.70;99.90;;;;;;5131999;27;20039;-75
2023/03/31 08:13:58;;;;;;;25.60;8.88;;;10.70;99.90;;;;;;5131584;27;20023;-80
2023/03/31 08:16:24;;;;;;;34.35;10.60;;;10.80;99.90;;;;;;5131923;27;20019;-76
2023/03/31 08:18:49;;;;;;;40.22;11.05;;;10.80;99.90;;;;;;5131770;27;20080;-75
2023/03/31 08:21:15;;;;;;;38.20;11.30;;;10.80;99.90;;;;;;5130898;27;20023;-75
2023/03/31 08:23:41;;;;;;;35.33;10.82;;;10.80;99.90;;;;;;5131595;27;20057;-75
2023/03/31 08:26:18;;;;;;;29.40;9.88;;;10.90;99.90;;;;;;5130637;27;20031;-75
2023/03/31 08:28:45;;;;;;;28.00;9.85;;;10.90;99.90;;;;;;5131013;27;20058;-75
2023/03/31 08:31:11;;;;;;;31.60;9.63;;;10.90;99.90;;;;;;5130804;27;20066;-75
2023/03/31 08:33:38;;;;;;;34.30;9.75;;;10.90;99.90;;;;;;5131446;27;20360;-74
2023/03/31 08:36:07;;;;;;;22.13;8.55;;;11.00;99.90;;;;;;5130845;27;20038;-75
2023/03/31 08:38:36;;;;;;;37.45;8.85;;;10.90;99.90;;;;;;5131642;27;20319;-76
2023/03/31 08:41:04;;;;;;;28.80;8.48;;;11.00;99.90;;;;;;5131239;27;20319;-76
2023/03/31 08:43:42;;;;;;;27.73;8.43;;;11.00;99.90;;;;;;5130912;27;20166;-75
2023/03/31 08:46:12;;;;;;;25.77;7.70;;;11.00;99.90;;;;;;5130785;28;20115;-76
2023/03/31 08:48:44;;;;;;;25.88;7.80;;;10.90;99.90;;;;;;5131335;28;20045;-75
2023/03/31 08:51:23;;;;;;;27.67;8.27;;;11.00;99.90;;;;;;5130531;28;20433;-76
2023/03/31 08:54:07;;;;;;;30.00;7.90;;;11.00;99.90;;;;;;5131351;28;20027;-74
2023/03/31 08:56:40;;;;;;;25.98;7.72;;;10.90;99.90;;;;;;5131245;28;20037;-75
2023/03/31 08:59:25;;;;;;;25.25;7.97;;;10.90;99.90;;;;;;5112154;28;20023;-75
2023/03/31 09:02:27;;;;;;;25.33;8.80;;;11.00;99.90;;;;;;5131536;28;20031;-74
2023/03/31 09:05:22;;;;;;;22.87;7.43;;;10.80;99.90;;;;;;5134638;27;20090;-75
2023/03/31 09:08:20;;;;;;;22.40;8.35;;;10.80;99.90;;;;;;5135512;27;20042;-75
2023/03/31 09:10:59;;;;;;;20.40;7.13;;;10.80;99.90;;;;;;5099654;27;20058;-74
2023/03/31 09:14:00;;;;;;;22.00;8.38;;;10.80;99.90;;;;;;5099111;27;20042;-75
2023/03/31 09:16:31;;;;;;;25.10;7.90;;;10.90;99.90;;;;;;5130280;27;20084;-74
2023/03/31 09:19:00;;;;;;;23.63;7.82;;;10.90;99.90;;;;;;5135102;27;20106;-75
2023/03/31 09:21:40;;;;;;;20.98;7.70;;;10.90;99.90;;;;;;5135142;27;20489;-75
2023/03/31 09:24:31;;;;;;;13.82;5.72;;;11.00;99.90;;;;;;5134679;27;20051;-75
2023/03/31 09:27:05;;;;;;;23.80;5.88;;;11.00;99.90;;;;;;5134210;27;20149;-75
2023/03/31 09:29:45;;;;;;;16.52;5.28;;;11.00;99.90;;;;;;5135183;27;20031;-74
2023/03/31 09:32:23;;;;;;;15.60;5.78;;;11.00;99.90;;;;;;5134401;27;20053;-73
2023/03/31 09:35:13;;;;;;;19.38;5.97;;;10.90;99.90;;;;;;5134962;27;20023;-74
2023/03/31 09:37:39;;;;;;;14.68;5.65;;;10.90;99.90;;;;;;5116502;27;20039;-74
2023/03/31 09:40:10;;;;;;;15.63;6.05;;;11.00;99.90;;;;;;5134495;27;20031;-78
2023/03/31 09:42:37;;;;;;;14.63;5.93;;;11.00;99.90;;;;;;5116241;27;20364;-74
2023/03/31 09:45:03;;;;;;;16.25;5.25;;;11.00;99.90;;;;;;5134249;27;20077;-78
2023/03/31 09:47:41;;;;;;;12.15;4.53;;;11.10;99.90;;;;;;5134342;27;20023;-74
2023/03/31 09:50:09;;;;;;;11.93;4.60;;;11.20;99.90;;;;;;5133712;27;20031;-74
2023/03/31 09:53:04;;;;;;;9.18;4.22;;;11.20;99.90;;;;;;5134582;27;20031;-74
2023/03/31 09:56:07;;;;;;;14.73;5.15;;;11.30;99.90;;;;;;5130892;27;20039;-75
2023/03/31 09:58:41;;;;;;;11.57;4.65;;;11.50;99.90;;;;;;5030660;28;20057;-74
2023/03/31 10:01:09;;;;;;;15.23;4.80;;;11.50;99.90;;;;;;5120080;27;20038;-74
2023/03/31 10:03:49;;;;;;;14.27;5.38;;;11.50;99.90;;;;;;5134706;27;20098;-75
2023/03/31 10:06:15;;;;;;;11.50;4.97;;;11.50;99.90;;;;;;5134222;27;20141;-75
2023/03/31 10:08:47;;;;;;;13.98;4.90;;;11.50;99.90;;;;;;5134263;27;20062;-75
2023/03/31 10:11:14;;;;;;;13.48;4.45;;;11.50;99.90;;;;;;5133763;27;20537;-75
2023/03/31 10:13:47;;;;;;;11.93;4.25;;;11.50;99.90;;;;;;5133830;27;20023;-74
2023/03/31 10:16:43;;;;;;;15.52;4.80;;;11.50;99.90;;;;;;5132626;27;20023;-74
2023/03/31 10:19:25;;;;;;;17.45;5.15;;;11.50;99.90;;;;;;5132539;27;20494;-75
2023/03/31 10:21:58;;;;;;;11.23;5.07;;;11.40;99.90;;;;;;5115452;27;20072;-74
2023/03/31 10:24:26;;;;;;;13.75;4.97;;;11.40;99.90;;;;;;5133381;27;20023;-74
2023/03/31 10:26:54;;;;;;;13.65;5.18;;;11.40;99.90;;;;;;5133913;27;20076;-74
2023/03/31 10:29:46;;;;;;;18.83;6.22;;;11.30;99.90;;;;;;5133165;27;20039;-73
2023/03/31 10:32:27;;;;;;;18.92;6.18;;;11.20;99.90;;;;;;5109783;27;20035;-75
2023/03/31 10:34:57;;;;;;;17.60;6.00;;;11.20;99.90;;;;;;5133511;27;20030;-75
2023/03/31 10:37:27;;;;;;;23.17;6.90;;;11.30;99.90;;;;;;5132690;27;20035;-76
2023/03/31 10:40:39;;;;;;;19.15;6.60;;;11.30;99.90;;;;;;5132638;27;20027;-74
2023/03/31 10:43:16;;;;;;;18.52;5.93;;;11.30;99.90;;;;;;5127617;27;20527;-74
2023/03/31 10:46:00;;;;;;;22.02;6.10;;;11.30;99.90;;;;;;5132465;27;20072;-78
2023/03/31 10:48:38;;;;;;;22.58;5.88;;;11.30;99.90;;;;;;5132179;27;20035;-75
2023/03/31 10:51:12;;;;;;;16.13;6.05;;;11.30;99.90;;;;;;5132766;27;20031;-74
2023/03/31 10:53:53;;;;;;;14.50;5.63;;;11.30;99.90;;;;;;5132660;27;20046;-74
2023/03/31 10:56:37;;;;;;;12.75;5.65;;;11.30;99.90;;;;;;5132155;27;20412;-75
2023/03/31 10:59:24;;;;;;;16.02;6.78;;;11.40;99.90;;;;;;5132520;27;20154;-74
2023/03/31 11:01:59;;;;;;;15.20;4.85;;;11.50;99.90;;;;;;5132164;27;20031;-75
2023/03/31 11:04:49;;;;;;;18.75;5.43;;;11.60;99.90;;;;;;5113450;27;20333;-74
2023/03/31 11:07:33;;;;;;;21.27;5.40;;;11.60;99.90;;;;;;5132138;27;20027;-74
2023/03/31 11:10:30;;;;;;;8.27;3.90;;;11.70;99.90;;;;;;5132367;27;20445;-75
2023/03/31 11:13:02;;;;;;;16.23;5.10;;;11.70;99.90;;;;;;5132300;27;20317;-75
2023/03/31 11:16:00;;;;;;;14.30;5.20;;;11.80;99.90;;;;;;5131476;27;20505;-75
2023/03/31 11:18:39;;;;;;;14.13;4.15;;;11.90;99.90;;;;;;5131451;27;20027;-75
2023/03/31 11:21:21;;;;;;;13.35;4.20;;;11.90;99.90;;;;;;5131819;27;20047;-75
2023/03/31 11:24:17;;;;;;;11.45;4.22;;;11.90;99.90;;;;;;5131692;27;20094;-75
2023/03/31 11:27:06;;;;;;;12.35;4.30;;;11.90;99.90;;;;;;5131856;27;20023;-75
2023/03/31 11:29:54;;;;;;;14.07;3.88;;;11.70;99.90;;;;;;5131478;27;20034;-75
2023/03/31 11:32:36;;;;;;;13.95;4.28;;;11.70;99.90;;;;;;5100422;27;20048;-75
2023/03/31 11:35:20;;;;;;;13.77;4.22;;;11.70;99.90;;;;;;5114267;27;20345;-75
2023/03/31 11:37:52;;;;;;;14.00;4.22;;;11.60;99.90;;;;;;5132553;27;20023;-75
2023/03/31 11:40:33;;;;;;;14.45;4.97;;;11.60;99.90;;;;;;5132042;27;20027;-76
2023/03/31 11:43:38;;;;;;;19.23;5.13;;;11.50;99.90;;;;;;5132667;27;20172;-75
2023/03/31 11:46:16;;;;;;;14.88;4.78;;;11.60;99.90;;;;;;5129829;27;20047;-74
2023/03/31 11:48:51;;;;;;;15.55;4.72;;;11.60;99.90;;;;;;5131968;27;20456;-74
2023/03/31 11:51:38;;;;;;;11.88;3.47;;;11.60;99.90;;;;;;5131555;27;20027;-74
2023/03/31 11:54:10;;;;;;;12.20;4.45;;;11.60;99.90;;;;;;5132246;27;20164;-74
2023/03/31 11:56:40;;;;;;;13.35;3.65;;;11.60;99.90;;;;;;5131992;27;20027;-75
2023/03/31 11:59:06;;;;;;;11.15;4.70;;;11.70;99.90;;;;;;5131530;27;20474;-74
2023/03/31 12:01:41;;;;;;;13.80;3.60;;;11.80;99.90;;;;;;5131515;27;20015;-75
2023/03/31 12:04:24;;;;;;;11.43;3.90;;;11.80;99.90;;;;;;5132679;27;20023;-75
2023/03/31 12:06:54;;;;;;;10.13;3.78;;;11.90;99.90;;;;;;5132975;27;20027;-75
2023/03/31 12:09:35;;;;;;;9.38;4.20;;;11.90;99.90;;;;;;5131842;27;20031;-75
2023/03/31 12:12:17;;;;;;;14.77;4.72;;;11.90;99.90;;;;;;5132890;27;20023;-75
2023/03/31 12:14:50;;;;;;;17.65;4.93;;;11.80;99.90;;;;;;5132565;27;20042;-74
2023/03/31 12:17:20;;;;;;;9.98;3.63;;;11.70;99.90;;;;;;5131866;27;20119;-75
2023/03/31 12:19:56;;;;;;;15.20;4.40;;;11.70;99.90;;;;;;5114239;27;20070;-75
2023/03/31 12:22:26;;;;;;;12.60;3.65;;;11.80;99.90;;;;;;5131969;27;20079;-73
2023/03/31 12:24:53;;;;;;;12.32;4.32;;;11.90;99.90;;;;;;5132645;27;20391;-74
2023/03/31 12:27:26;;;;;;;12.70;4.18;;;12.00;99.90;;;;;;5113442;27;20027;-75
2023/03/31 12:29:59;;;;;;;9.80;4.25;;;12.00;99.90;;;;;;5132696;27;20035;-75
2023/03/31 12:32:29;;;;;;;9.63;4.25;;;12.10;99.90;;;;;;5132100;27;20106;-75
2023/03/31 12:35:04;;;;;;;9.52;3.65;;;12.20;99.90;;;;;;5114302;27;20110;-74
2023/03/31 12:37:41;;;;;;;7.93;3.83;;;12.20;99.90;;;;;;5131689;27;20110;-74
2023/03/31 12:40:28;;;;;;;9.98;3.85;;;12.30;99.90;;;;;;5131821;27;20033;-74
2023/03/31 12:43:26;;;;;;;14.40;4.55;;;12.40;99.90;;;;;;5132178;27;20034;-75
2023/03/31 12:46:00;;;;;;;10.80;4.53;;;12.40;99.90;;;;;;5096839;28;20042;-74
2023/03/31 12:48:52;;;;;;;10.77;3.65;;;12.60;99.90;;;;;;5113124;28;20039;-75
2023/03/31 12:51:37;;;;;;;14.53;4.13;;;12.50;99.90;;;;;;5131571;28;20039;-75
2023/03/31 12:54:27;;;;;;;13.98;4.47;;;12.40;99.90;;;;;;5132544;28;20023;-75
2023/03/31 12:57:03;;;;;;;7.97;3.95;;;12.60;99.90;;;;;;5132599;28;20100;-75
2023/03/31 12:59:41;;;;;;;8.45;4.50;;;12.60;99.90;;;;;;5131762;28;20035;-75
2023/03/31 13:02:16;;;;;;;9.23;4.28;;;12.60;99.90;;;;;;5132362;28;20088;-75
2023/03/31 13:04:43;;;;;;;9.68;4.18;;;12.60;99.90;;;;;;5132101;28;20163;-74
2023/03/31 13:07:35;;;;;;;14.93;4.47;;;12.60;99.90;;;;;;5132179;28;20101;-75